Time;durP1;ratioP1;P1;durP2;ratioP2;P2;SDS_P1;SDS_P2;PMS_P1;PMS_P2;Temp;Humidity;BMP_temperature;BMP_pressure;BME280_temperature;BME280_humidity;BME280_pressure;Samples;Min_cycle;Max_cycle;Signal;HPM_P1;HPM_P2
2022/11/20 00:01:13;;;;;;;4.47;2.50;;;;;;;22.56;46.97;94070.00;4966593;28;20038;-64
2022/11/20 00:03:39;;;;;;;3.92;2.28;;;;;;;22.99;47.29;94143.88;4966079;28;20049;-63
2022/11/20 00:06:06;;;;;;;4.57;2.38;;;;;;;23.03;47.45;94169.53;4951422;28;20394;-64
2022/11/20 00:08:32;;;;;;;3.85;2.42;;;;;;;23.07;47.20;94150.84;4947179;28;20193;-63
2022/11/20 00:10:57;;;;;;;4.55;2.20;;;;;;;22.94;47.09;94172.69;4965667;28;20563;-64
2022/11/20 00:13:22;;;;;;;3.47;2.20;;;;;;;22.93;47.36;94171.22;4955856;28;20174;-64
2022/11/20 00:15:48;;;;;;;3.65;2.50;;;;;;;23.08;47.49;94162.50;4968190;28;20085;-63
2022/11/20 00:18:13;;;;;;;3.00;2.13;;;;;;;23.11;47.34;94173.06;4987610;28;20045;-63
2022/11/20 00:20:39;;;;;;;4.15;2.40;;;;;;;23.11;47.21;94167.63;4969705;28;20054;-64
2022/11/20 00:23:05;;;;;;;3.63;2.45;;;;;;;23.09;47.18;94153.81;4986722;28;20057;-63
2022/11/20 00:25:31;;;;;;;3.58;2.50;;;;;;;23.03;47.21;94145.03;4985625;28;20164;-63
2022/11/20 00:27:56;;;;;;;4.35;2.30;;;;;;;22.97;47.30;94136.22;4985543;28;20356;-64
2022/11/20 00:30:22;;;;;;;3.97;2.58;;;;;;;22.46;47.01;94062.81;4987766;28;20061;-63
2022/11/20 00:32:47;;;;;;;4.25;2.40;;;;;;;22.75;46.97;94097.06;4984870;28;20047;-63
2022/11/20 00:35:12;;;;;;;3.95;2.25;;;;;;;21.77;47.22;93952.25;4986787;28;20059;-64
2022/11/20 00:37:38;;;;;;;3.15;2.20;;;;;;;22.85;47.46;94111.72;4985878;28;20053;-63
2022/11/20 00:40:04;;;;;;;4.18;2.25;;;;;;;22.98;47.12;94154.03;4985487;28;20046;-63
2022/11/20 00:42:30;;;;;;;3.50;2.40;;;;;;;23.04;46.97;94135.56;4984867;28;20058;-64
2022/11/20 00:44:56;;;;;;;3.90;2.53;;;;;;;22.71;47.40;94099.41;4985502;28;20050;-63
2022/11/20 00:47:21;;;;;;;4.65;2.90;;;;;;;22.98;47.18;94148.56;4953282;28;20045;-64
2022/11/20 00:49:47;;;;;;;2.83;1.98;;;;;;;22.77;47.25;94138.84;4967524;28;20050;-63
2022/11/20 00:52:12;;;;;;;3.53;2.28;;;;;;;22.88;47.10;94144.81;4985277;28;20549;-64
2022/11/20 00:54:38;;;;;;;3.53;2.20;;;;;;;23.05;46.71;94169.72;4986913;28;20031;-64
2022/11/20 00:57:03;;;;;;;3.40;2.15;;;;;;;23.03;47.14;94141.53;4987806;28;20030;-63
2022/11/20 00:59:28;;;;;;;4.45;2.40;;;;;;;23.04;47.16;94151.19;4970131;28;20451;-63
2022/11/20 01:01:54;;;;;;;3.22;2.33;;;;;;;23.07;47.24;94144.69;4984875;28;20442;-63
2022/11/20 01:04:19;;;;;;;3.75;2.17;;;;;;;23.02;47.39;94181.66;4979977;28;20663;-63
2022/11/20 01:06:45;;;;;;;5.75;2.20;;;;;;;23.01;47.07;94182.91;4974026;28;20042;-63
2022/11/20 01:09:12;;;;;;;3.30;2.05;;;;;;;23.06;47.19;94154.84;4968803;28;20034;-62
2022/11/20 01:11:39;;;;;;;3.47;2.30;;;;;;;22.95;47.33;94132.56;4984895;28;20077;-65
2022/11/20 01:14:06;;;;;;;2.78;2.00;;;;;;;23.03;47.10;94131.41;4986032;28;20133;-64
2022/11/20 01:16:36;;;;;;;3.33;2.22;;;;;;;22.90;47.17;94109.63;4952383;28;20154;-63
2022/11/20 01:19:03;;;;;;;;;;;;;;;23.08;47.05;94132.53;4968855;28;20046;-63
2022/11/20 01:21:33;;;;;;;3.17;2.25;;;;;;;23.02;46.63;94119.03;4983450;28;19918;-66
2022/11/20 01:23:58;;;;;;;3.33;2.10;;;;;;;22.88;47.15;94116.13;4949648;28;20124;-65
2022/11/20 01:26:28;;;;;;;3.13;1.67;;;;;;;21.70;47.25;93925.69;4965228;28;20047;-64
2022/11/20 01:28:54;;;;;;;3.08;2.00;;;;;;;22.98;46.55;94110.44;4964417;28;20034;-64
2022/11/20 01:31:24;;;;;;;3.65;1.95;;;;;;;22.96;46.89;94126.59;4965483;28;20117;-64
2022/11/20 01:33:52;;;;;;;3.38;2.10;;;;;;;23.04;46.74;94135.56;4966420;28;20549;-64
2022/11/20 01:36:18;;;;;;;3.70;2.28;;;;;;;23.02;47.08;94105.44;4965629;28;20039;-64
2022/11/20 01:38:43;;;;;;;2.35;1.85;;;;;;;22.81;47.01;94084.84;4960122;28;20042;-64
2022/11/20 01:41:09;;;;;;;3.25;1.85;;;;;;;22.97;47.35;94109.00;4968150;28;20046;-64
2022/11/20 01:43:35;;;;;;;3.70;1.85;;;;;;;22.84;46.92;94104.81;4971897;28;20054;-64
2022/11/20 01:46:04;;;;;;;3.28;1.83;;;;;;;22.21;46.72;94007.22;4966175;28;20545;-64
2022/11/20 01:48:52;;;;;;;3.90;2.10;;;;;;;22.95;46.99;94106.06;4968970;28;20050;-64
2022/11/20 01:51:40;;;;;;;3.63;1.77;;;;;;;22.98;46.86;94124.06;4971541;28;20542;-64
2022/11/20 01:54:08;;;;;;;2.55;1.90;;;;;;;22.98;47.12;94126.06;4968572;28;20042;-63
2022/11/20 01:56:36;;;;;;;2.95;2.00;;;;;;;22.97;46.59;94136.22;4947499;28;20050;-61
2022/11/20 01:59:02;;;;;;;2.08;1.73;;;;;;;22.89;47.36;94102.69;4980002;28;20792;-63
2022/11/20 02:01:27;;;;;;;2.50;1.60;;;;;;;23.01;46.97;94120.28;4981615;28;20129;-64
2022/11/20 02:03:53;;;;;;;2.75;1.83;;;;;;;22.83;47.17;94095.19;4982531;28;20506;-63
2022/11/20 02:07:00;;;;;;;3.20;1.90;;;;;;;22.97;46.93;94119.16;4949756;28;20545;-61
2022/11/20 02:09:26;;;;;;;2.70;1.90;;;;;;;22.93;46.69;94121.44;4939200;28;20061;-63
2022/11/20 02:11:52;;;;;;;2.92;1.75;;;;;;;22.83;47.17;94130.59;4966974;28;20042;-63
2022/11/20 02:14:17;;;;;;;3.70;1.73;;;;;;;22.99;47.10;94122.09;4951937;28;20042;-64
2022/11/20 02:16:47;;;;;;;2.58;1.60;;;;;;;22.88;46.95;94133.91;4984445;28;20065;-63
2022/11/20 02:19:27;;;;;;;2.78;1.90;;;;;;;22.94;47.08;94131.84;4967565;28;20471;-65
2022/11/20 02:21:55;;;;;;;2.80;1.80;;;;;;;22.97;47.04;94147.13;4951797;28;20585;-65
2022/11/20 02:24:21;;;;;;;2.08;1.63;;;;;;;22.96;47.25;94140.22;4986485;28;20037;-64
2022/11/20 02:26:59;;;;;;;2.90;1.70;;;;;;;22.94;46.83;94131.84;4971642;28;20054;-65
2022/11/20 02:29:57;;;;;;;2.83;1.40;;;;;;;22.94;47.00;94131.84;4957408;28;20050;-63
2022/11/20 02:32:25;;;;;;;1.90;1.50;;;;;;;22.57;47.08;94065.28;4971813;28;20637;-62
2022/11/20 02:34:51;;;;;;;3.65;1.77;;;;;;;22.97;46.80;94158.03;4989427;28;20069;-63
2022/11/20 02:37:16;;;;;;;2.58;1.85;;;;;;;22.89;47.02;94138.09;4968621;28;20047;-63
2022/11/20 02:39:42;;;;;;;2.53;2.03;;;;;;;22.96;46.89;94156.53;4952205;28;20572;-64
2022/11/20 02:42:07;;;;;;;2.38;1.70;;;;;;;22.80;47.09;94116.03;4971761;28;20030;-63
2022/11/20 02:44:33;;;;;;;2.40;1.83;;;;;;;22.77;47.04;94100.03;4953441;28;20064;-62
2022/11/20 02:46:58;;;;;;;3.10;1.55;;;;;;;22.82;47.07;94140.00;4971276;28;20058;-62
2022/11/20 02:49:24;;;;;;;2.47;1.75;;;;;;;22.93;46.67;94165.75;4952212;28;20047;-64
2022/11/20 02:51:49;;;;;;;2.03;1.50;;;;;;;22.83;46.99;94125.13;4983816;28;20038;-64
2022/11/20 02:54:15;;;;;;;1.77;1.40;;;;;;;22.95;47.32;94165.97;4952357;28;20034;-63
2022/11/20 02:56:40;;;;;;;2.38;1.60;;;;;;;22.87;46.89;94141.88;4981578;28;20038;-63
2022/11/20 02:59:06;;;;;;;2.40;1.52;;;;;;;22.92;46.90;94156.09;4951331;28;20047;-64
2022/11/20 03:01:31;;;;;;;3.03;1.80;;;;;;;22.96;47.09;94145.66;4968255;28;20049;-62
2022/11/20 03:03:57;;;;;;;2.75;1.60;;;;;;;21.76;46.92;93991.53;4987595;28;20561;-64
2022/11/20 03:06:22;;;;;;;2.47;1.40;;;;;;;22.82;47.06;94161.78;4969125;28;20470;-63
2022/11/20 03:08:47;;;;;;;2.50;1.45;;;;;;;22.89;47.26;94135.38;4950131;28;20708;-64
2022/11/20 03:11:13;;;;;;;2.97;1.40;;;;;;;22.83;46.72;94157.81;4988668;28;20073;-63
2022/11/20 03:13:38;;;;;;;3.47;1.80;;;;;;;22.91;47.07;94176.44;4967929;28;20093;-64
2022/11/20 03:16:20;;;;;;;2.28;1.50;;;;;;;22.89;47.06;94151.69;4984234;28;20494;-63
2022/11/20 03:18:46;;;;;;;2.20;1.50;;;;;;;22.15;46.91;94069.09;4967359;28;20046;-63
2022/11/20 03:21:12;;;;;;;1.88;1.58;;;;;;;22.34;47.25;94094.22;4953859;28;20498;-63
2022/11/20 03:23:37;;;;;;;3.05;1.65;;;;;;;22.54;47.01;94164.28;4951880;28;20047;-63
2022/11/20 03:26:13;;;;;;;2.58;1.50;;;;;;;22.88;46.74;94186.91;4967266;28;20038;-63
2022/11/20 03:28:39;;;;;;;2.08;1.55;;;;;;;22.87;47.15;94171.81;4954598;28;20475;-64
2022/11/20 03:31:09;;;;;;;2.83;1.70;;;;;;;22.87;46.89;94196.31;4970468;28;20097;-63
2022/11/20 03:33:34;;;;;;;;;;;;;;;22.87;47.18;94185.41;4950795;28;20066;-63
2022/11/20 03:36:07;;;;;;;2.33;1.35;;;;;;;22.59;47.20;94139.00;4981792;28;19941;-64
2022/11/20 03:38:33;;;;;;;2.83;1.70;;;;;;;22.77;47.00;94165.34;4944804;28;20092;-63
2022/11/20 03:41:03;;;;;;;2.20;1.60;;;;;;;22.88;46.85;94188.38;4970287;28;20081;-63
2022/11/20 03:43:28;;;;;;;2.85;1.63;;;;;;;22.82;47.16;94199.88;4970625;28;20049;-65
2022/11/20 03:45:54;;;;;;;2.22;1.50;;;;;;;22.90;47.44;94229.41;4988220;28;20588;-63
2022/11/20 03:48:19;;;;;;;1.98;1.48;;;;;;;22.92;47.25;94198.94;4988464;28;20042;-64
2022/11/20 03:50:47;;;;;;;2.25;1.35;;;;;;;22.65;46.88;94202.19;4969843;28;20530;-63
2022/11/20 03:53:13;;;;;;;2.08;1.25;;;;;;;22.93;47.29;94205.84;4971039;28;20517;-64
2022/11/20 03:55:38;;;;;;;2.50;1.55;;;;;;;22.88;47.19;94199.25;4951272;28;20066;-64
2022/11/20 03:58:04;;;;;;;1.90;1.30;;;;;;;22.89;47.16;94200.72;4960504;28;20057;-63
2022/11/20 04:00:29;;;;;;;2.38;1.50;;;;;;;22.86;47.35;94200.31;4987716;28;20034;-65
2022/11/20 04:02:58;;;;;;;1.98;1.30;;;;;;;22.78;47.29;94194.00;4987611;28;20050;-64
2022/11/20 04:05:24;;;;;;;1.67;1.20;;;;;;;22.91;47.45;94214.53;4969477;28;20144;-63
2022/11/20 04:07:49;;;;;;;1.65;1.17;;;;;;;22.67;46.88;94177.91;4949233;28;20391;-63
2022/11/20 04:10:14;;;;;;;2.08;1.50;;;;;;;22.91;46.91;94214.53;4965984;28;20665;-63
2022/11/20 04:12:40;;;;;;;2.15;1.50;;;;;;;22.80;47.41;94192.25;4969789;28;20042;-64
2022/11/20 04:15:06;;;;;;;2.42;1.30;;;;;;;22.89;47.45;94208.16;4986606;28;20030;-63
2022/11/20 04:17:31;;;;;;;1.95;1.50;;;;;;;22.89;47.09;94211.59;4968825;28;20058;-64
2022/11/20 04:19:56;;;;;;;2.35;1.48;;;;;;;22.88;47.35;94207.44;4966557;28;20530;-62
2022/11/20 04:22:22;;;;;;;1.83;1.25;;;;;;;22.82;47.17;94203.31;4963807;28;20438;-64
2022/11/20 04:24:47;;;;;;;3.03;1.30;;;;;;;22.12;46.95;94102.78;4967744;28;20096;-62
2022/11/20 04:27:13;;;;;;;2.67;1.40;;;;;;;22.68;47.60;94201.16;4966965;28;20035;-64
2022/11/20 04:29:38;;;;;;;1.73;1.20;;;;;;;22.86;47.22;94238.41;4963901;28;20035;-64
2022/11/20 04:32:04;;;;;;;2.38;1.27;;;;;;;22.25;47.39;94132.72;4956861;28;20047;-63
2022/11/20 04:34:29;;;;;;;2.10;1.33;;;;;;;22.72;47.37;94207.00;4965413;28;20137;-63
2022/11/20 04:36:54;;;;;;;2.10;1.30;;;;;;;22.88;47.48;94226.47;4986639;28;20061;-64
2022/11/20 04:39:20;;;;;;;2.47;1.27;;;;;;;22.66;47.23;94203.66;4985201;28;20077;-63
2022/11/20 04:41:45;;;;;;;2.08;1.30;;;;;;;22.81;47.60;94228.34;4950124;28;20042;-63
2022/11/20 04:44:11;;;;;;;1.40;1.20;;;;;;;22.85;47.38;94220.63;4978257;28;20061;-63
2022/11/20 04:46:41;;;;;;;2.28;1.42;;;;;;;22.77;47.37;94203.47;4955699;28;20557;-64
2022/11/20 04:49:06;;;;;;;2.47;1.50;;;;;;;22.03;46.88;94095.03;4972770;28;20118;-64
2022/11/20 04:51:32;;;;;;;1.98;1.10;;;;;;;22.89;47.35;94221.75;4950019;28;20138;-63
2022/11/20 04:53:57;;;;;;;1.85;1.20;;;;;;;22.09;47.01;94092.94;4964973;28;20095;-64
2022/11/20 04:56:23;;;;;;;2.00;1.15;;;;;;;22.70;47.55;94193.19;4980398;28;20054;-63
2022/11/20 04:58:48;;;;;;;2.70;1.30;;;;;;;22.82;47.24;94189.00;4951689;28;20035;-63
2022/11/20 05:01:22;;;;;;;2.63;1.23;;;;;;;22.74;47.18;94171.84;4969094;28;20046;-62
2022/11/20 05:03:47;;;;;;;1.63;1.10;;;;;;;22.75;47.17;94156.97;4952988;28;20053;-64
2022/11/20 05:06:14;;;;;;;2.03;1.15;;;;;;;22.76;47.14;94193.81;4966345;28;20499;-63
2022/11/20 05:08:39;;;;;;;2.10;1.20;;;;;;;22.63;47.39;94180.19;4946526;28;20132;-63
2022/11/20 05:11:10;;;;;;;1.98;1.30;;;;;;;21.97;47.05;94042.75;4952492;28;20511;-65
2022/11/20 05:13:36;;;;;;;1.98;1.20;;;;;;;22.75;47.72;94156.97;4957109;28;20265;-65
2022/11/20 05:16:06;;;;;;;2.22;1.20;;;;;;;22.81;47.17;94161.06;4964528;28;20528;-63
2022/11/20 05:18:33;;;;;;;2.47;1.35;;;;;;;22.80;47.30;94156.13;4950678;28;20030;-63
2022/11/20 05:20:58;;;;;;;2.03;1.20;;;;;;;22.78;47.25;94158.63;4965912;28;20124;-64
2022/11/20 05:23:24;;;;;;;2.03;1.10;;;;;;;22.78;47.42;94167.53;4949469;28;20566;-62
2022/11/20 05:25:53;;;;;;;1.90;1.20;;;;;;;22.81;47.50;94143.97;4944768;28;20047;-64
2022/11/20 05:28:19;;;;;;;2.08;1.40;;;;;;;22.78;47.40;94145.03;4965438;28;20050;-63
2022/11/20 05:30:44;;;;;;;2.08;1.20;;;;;;;22.78;47.56;94164.06;4967081;28;20553;-63
2022/11/20 05:33:10;;;;;;;1.70;1.23;;;;;;;22.83;47.42;94157.81;4964919;28;20035;-63
2022/11/20 05:35:35;;;;;;;1.75;1.20;;;;;;;21.99;47.32;94040.25;4963652;28;20057;-64
2022/11/20 05:38:00;;;;;;;1.58;1.20;;;;;;;22.84;47.59;94175.59;4961836;28;20042;-64
2022/11/20 05:40:26;;;;;;;1.50;0.90;;;;;;;22.87;47.33;94190.88;4985548;28;20042;-64
2022/11/20 05:42:51;;;;;;;1.90;1.20;;;;;;;22.88;47.13;94166.59;4968316;28;20090;-64
2022/11/20 05:45:17;;;;;;;1.92;1.13;;;;;;;22.89;47.03;94168.03;4966567;28;20378;-64
2022/11/20 05:47:42;;;;;;;2.55;1.00;;;;;;;22.86;47.26;94183.97;4978337;28;20420;-63
2022/11/20 05:50:08;;;;;;;2.22;1.20;;;;;;;22.88;47.21;94192.34;4980835;28;20685;-64
2022/11/20 05:52:33;;;;;;;2.38;1.02;;;;;;;22.43;47.31;94104.66;4949564;28;20061;-63
2022/11/20 05:54:59;;;;;;;1.83;1.13;;;;;;;22.82;47.37;94161.78;4959501;28;20763;-63
2022/11/20 05:57:24;;;;;;;2.25;1.17;;;;;;;22.90;47.02;94180.41;4966791;28;20513;-63
2022/11/20 05:59:51;;;;;;;1.98;1.13;;;;;;;22.78;47.24;94183.13;4982261;28;20454;-63
2022/11/20 06:02:16;;;;;;;1.42;1.05;;;;;;;22.92;46.97;94182.59;4968408;28;20053;-63
2022/11/20 06:04:41;;;;;;;1.90;1.20;;;;;;;22.90;47.44;94196.00;4974949;28;20135;-62
2022/11/20 06:07:07;;;;;;;1.92;1.00;;;;;;;22.93;47.49;94201.16;4958210;28;20121;-64
2022/11/20 06:09:33;;;;;;;1.63;1.15;;;;;;;22.07;47.09;94051.94;4960957;28;20042;-63
2022/11/20 06:11:58;;;;;;;2.47;1.35;;;;;;;23.01;47.54;94201.97;4968700;28;20069;-63
2022/11/20 06:14:24;;;;;;;1.95;1.10;;;;;;;23.02;46.90;94200.72;4946397;28;20046;-61
2022/11/20 06:16:49;;;;;;;1.88;1.20;;;;;;;23.00;47.55;94211.41;4981735;28;20129;-61
2022/11/20 06:19:15;;;;;;;2.13;1.25;;;;;;;22.77;47.82;94182.41;4983865;28;20042;-61
2022/11/20 06:21:40;;;;;;;2.08;1.10;;;;;;;22.74;47.89;94166.41;4951044;28;20299;-59
2022/11/20 06:24:06;;;;;;;1.85;1.27;;;;;;;22.94;47.89;94197.19;4953238;28;20096;-61
2022/11/20 06:26:31;;;;;;;1.30;0.90;;;;;;;22.88;47.96;94199.25;4951840;28;20054;-62
2022/11/20 06:28:57;;;;;;;2.03;1.13;;;;;;;22.95;47.68;94220.41;4967518;28;20042;-61
2022/11/20 06:31:23;;;;;;;2.13;1.25;;;;;;;23.00;47.69;94208.69;4984835;28;20596;-61
2022/11/20 06:33:49;;;;;;;2.38;1.27;;;;;;;22.77;48.15;94187.13;4951589;28;20044;-61
2022/11/20 06:36:15;;;;;;;2.22;1.02;;;;;;;22.24;47.50;94098.63;4949654;28;20530;-62
2022/11/20 06:38:41;;;;;;;1.83;1.10;;;;;;;22.95;48.00;94209.53;4955749;28;20046;-61
2022/11/20 06:41:07;;;;;;;1.85;1.17;;;;;;;23.07;47.48;94210.75;4982148;28;20073;-61
2022/11/20 06:43:32;;;;;;;1.77;1.00;;;;;;;23.08;47.44;94216.97;4982798;28;20046;-60
2022/11/20 06:45:58;;;;;;;1.02;0.82;;;;;;;23.02;47.62;94230.69;4982785;28;20060;-61
2022/11/20 06:48:24;;;;;;;1.60;1.05;;;;;;;22.99;47.58;94231.72;4966657;28;20433;-60
2022/11/20 06:50:49;;;;;;;1.45;1.05;;;;;;;22.94;47.95;94218.97;4967461;28;20535;-61
2022/11/20 06:53:15;;;;;;;3.10;1.50;;;;;;;23.10;47.86;94234.22;4967599;28;20054;-61
2022/11/20 06:55:44;;;;;;;1.95;1.30;;;;;;;23.14;47.79;94231.94;4977560;28;20031;-60
2022/11/20 06:58:10;;;;;;;3.00;1.10;;;;;;;23.22;47.53;94238.19;4952160;28;20069;-61
2022/11/20 07:00:35;;;;;;;2.38;1.00;;;;;;;23.30;47.34;94241.72;4971238;28;20066;-62
2022/11/20 07:03:04;;;;;;;1.98;1.02;;;;;;;23.31;47.09;94253.38;4985776;28;20034;-61
2022/11/20 07:05:29;;;;;;;2.40;1.00;;;;;;;23.15;47.19;94227.94;4984803;28;20030;-60
2022/11/20 07:07:58;;;;;;;1.33;0.80;;;;;;;23.15;47.18;94214.34;4970548;28;20057;-60
2022/11/20 07:10:24;;;;;;;1.83;1.00;;;;;;;23.36;47.31;94231.44;4960338;28;20207;-60
2022/11/20 07:12:52;;;;;;;1.85;1.00;;;;;;;23.16;47.14;94196.72;4954522;28;20566;-60
2022/11/20 07:15:21;;;;;;;1.73;0.90;;;;;;;23.43;46.67;94236.25;4971502;28;20471;-60
2022/11/20 07:17:47;;;;;;;1.25;0.80;;;;;;;23.39;46.54;94214.03;4971205;28;20172;-60
2022/11/20 07:20:13;;;;;;;1.58;0.90;;;;;;;23.54;46.84;94241.47;4986107;28;20046;-61
2022/11/20 07:22:38;;;;;;;1.42;0.80;;;;;;;23.58;46.59;94220.06;4986420;28;20125;-60
2022/11/20 07:25:04;;;;;;;2.55;1.00;;;;;;;23.67;46.36;94244.19;4967368;28;20050;-63
2022/11/20 07:27:29;;;;;;;1.73;1.02;;;;;;;23.65;46.25;94246.72;4954899;28;20034;-61
2022/11/20 07:29:55;;;;;;;1.50;0.90;;;;;;;23.62;46.24;94220.50;4970935;28;20153;-60
2022/11/20 07:32:20;;;;;;;1.35;0.73;;;;;;;23.76;45.80;94251.91;4970435;28;20577;-61
2022/11/20 07:34:46;;;;;;;2.22;1.08;;;;;;;23.86;46.16;94262.56;4968882;28;20534;-60
2022/11/20 07:37:12;;;;;;;1.55;0.73;;;;;;;23.91;45.54;94248.06;4985518;28;20523;-61
2022/11/20 07:39:37;;;;;;;2.67;1.20;;;;;;;23.86;45.72;94228.41;4988157;28;20042;-62
2022/11/20 07:42:02;;;;;;;1.23;0.70;;;;;;;24.02;45.61;94247.81;4988187;28;20430;-61
2022/11/20 07:44:28;;;;;;;2.03;0.80;;;;;;;24.08;45.14;94242.22;4970038;28;20426;-61
2022/11/20 07:46:53;;;;;;;1.45;0.90;;;;;;;23.98;45.66;94246.69;4970467;28;20113;-63
2022/11/20 07:49:19;;;;;;;2.17;1.13;;;;;;;24.08;45.31;94234.03;4970510;28;20054;-61
2022/11/20 07:51:44;;;;;;;1.65;0.90;;;;;;;23.96;45.55;94221.94;4954121;28;20112;-61
2022/11/20 07:54:10;;;;;;;1.20;0.80;;;;;;;23.41;45.26;94124.34;4966400;28;20681;-61
2022/11/20 07:56:35;;;;;;;1.40;0.80;;;;;;;24.10;44.96;94237.72;4970475;28;20159;-61
2022/11/20 07:59:01;;;;;;;1.60;0.70;;;;;;;24.25;44.81;94246.03;4970557;28;20046;-62
2022/11/20 08:01:26;;;;;;;1.30;0.70;;;;;;;24.32;44.72;94258.25;4967037;28;20081;-61
2022/11/20 08:03:51;;;;;;;1.73;0.90;;;;;;;24.34;44.53;94250.31;4961065;28;20046;-61
2022/11/20 08:06:18;;;;;;;2.15;0.90;;;;;;;24.30;44.89;94247.88;4969201;28;20046;-61
2022/11/20 08:08:44;;;;;;;1.70;0.90;;;;;;;24.52;44.37;94250.09;4968674;28;20149;-62
2022/11/20 08:16:40;;;;;;;1.50;0.90;;;;;;;24.36;44.42;94218.47;4986969;28;20068;-61
2022/11/20 08:19:06;;;;;;;1.80;0.70;;;;;;;24.47;44.28;94248.25;4986631;28;20336;-62
2022/11/20 08:21:32;;;;;;;1.75;0.93;;;;;;;24.50;43.97;94241.72;4952678;28;20034;-62
2022/11/20 08:23:58;;;;;;;1.55;0.80;;;;;;;24.35;43.72;94206.84;4985032;28;20415;-61
2022/11/20 08:26:23;;;;;;;1.58;0.93;;;;;;;24.48;44.23;94260.59;4966536;28;20042;-61
2022/11/20 08:28:49;;;;;;;2.10;0.90;;;;;;;24.67;44.11;94267.31;4985089;28;20495;-60
2022/11/20 08:31:14;;;;;;;1.25;0.68;;;;;;;24.59;43.78;94254.88;4968378;28;20057;-61
2022/11/20 08:33:40;;;;;;;1.58;0.90;;;;;;;24.58;43.74;94258.88;4968328;28;20030;-62
2022/11/20 08:36:05;;;;;;;1.25;0.80;;;;;;;24.70;43.99;94260.06;4987480;28;20035;-61
2022/11/20 08:38:31;;;;;;;1.65;0.80;;;;;;;23.89;43.61;94136.06;4969588;28;20042;-62
2022/11/20 08:43:45;;;;;;;1.67;0.88;;;;;;;24.61;43.47;94249.63;4982059;28;20517;-62
2022/11/20 08:46:11;;;;;;;1.05;0.63;;;;;;;24.73;43.71;94286.28;4983301;28;20046;-62
2022/11/20 08:48:36;;;;;;;1.73;0.93;;;;;;;24.71;44.09;94327.03;4984967;28;20064;-62
2022/11/20 08:51:02;;;;;;;1.38;0.60;;;;;;;24.79;43.69;94306.00;4969547;28;20073;-62
2022/11/20 08:53:27;;;;;;;1.45;0.75;;;;;;;24.81;43.49;94308.91;4985227;28;20230;-62
2022/11/20 08:55:53;;;;;;;1.40;0.60;;;;;;;24.80;43.62;94300.00;4966076;28;20500;-61
2022/11/20 08:58:18;;;;;;;1.50;0.60;;;;;;;24.77;43.81;94286.66;4965415;28;20388;-61
2022/11/20 09:00:44;;;;;;;1.92;0.68;;;;;;;24.86;43.32;94279.47;4952785;28;20097;-62
2022/11/20 09:03:09;;;;;;;1.90;0.70;;;;;;;24.86;43.53;94279.47;4966317;28;20388;-61
2022/11/20 09:05:35;;;;;;;1.23;0.80;;;;;;;24.47;43.50;94220.94;4975693;28;20050;-62
2022/11/20 09:08:00;;;;;;;1.08;0.70;;;;;;;24.91;43.80;94300.44;4952375;28;20050;-62
2022/11/20 09:10:26;;;;;;;1.95;0.90;;;;;;;24.97;43.68;94301.00;4985069;28;20054;-62
2022/11/20 09:12:52;;;;;;;1.35;0.73;;;;;;;24.92;44.00;94299.16;4967348;28;20140;-63
2022/11/20 09:15:18;;;;;;;1.20;0.70;;;;;;;24.91;43.60;94335.94;4949268;28;20034;-62
2022/11/20 09:17:53;;;;;;;2.40;0.90;;;;;;;24.82;43.63;94305.66;4968436;28;20522;-61
2022/11/20 09:20:19;;;;;;;1.95;0.70;;;;;;;24.82;43.57;94296.72;4968415;28;20046;-62
2022/11/20 09:22:44;;;;;;;1.35;0.70;;;;;;;24.25;43.33;94202.38;4990852;23;20251;-62
2022/11/20 09:25:09;;;;;;;1.48;0.80;;;;;;;24.73;43.92;94297.22;5002093;28;20073;-64
2022/11/20 09:27:35;;;;;;;1.65;0.80;;;;;;;24.87;43.50;94283.66;5003263;28;20168;-60
2022/11/20 09:30:01;;;;;;;2.38;0.88;;;;;;;24.86;43.88;94300.59;4989481;28;20414;-62
2022/11/20 09:32:26;;;;;;;1.00;0.70;;;;;;;24.87;43.44;94286.41;5000047;28;20210;-62
2022/11/20 09:34:52;;;;;;;1.60;0.60;;;;;;;24.91;43.66;94281.31;4991301;28;20038;-63
2022/11/20 09:37:17;;;;;;;3.78;0.57;;;;;;;25.16;43.51;94271.47;4996569;28;20104;-61
2022/11/20 09:39:43;;;;;;;1.50;0.80;;;;;;;25.42;42.69;94235.69;4991584;28;20149;-65
2022/11/20 09:42:23;;;;;;;1.42;0.80;;;;;;;25.55;42.17;94246.50;5032814;23;20539;-62
2022/11/20 09:45:27;;;;;;;1.38;0.80;;;;;;;25.35;43.21;94250.81;5028372;28;20515;-62
2022/11/20 09:48:38;;;;;;;1.02;0.57;;;;;;;25.48;42.53;94255.41;5034893;28;20579;-63
2022/11/20 09:51:31;;;;;;;1.20;0.60;;;;;;;25.41;42.77;94245.16;5019053;28;20033;-63
2022/11/20 09:53:56;;;;;;;1.67;0.82;;;;;;;25.28;42.70;94248.03;5044379;28;20036;-62
2022/11/20 09:56:22;;;;;;;2.80;1.02;;;;;;;25.39;42.64;94242.97;5044278;28;20106;-62
2022/11/20 09:58:51;;;;;;;1.60;0.85;;;;;;;25.02;42.57;94204.56;5043487;28;20114;-62
2022/11/20 10:01:17;;;;;;;2.40;0.55;;;;;;;25.45;42.61;94256.47;5009656;28;20138;-64
2022/11/20 10:04:04;;;;;;;2.45;0.68;;;;;;;25.25;43.59;94227.25;5025855;28;20027;-63
2022/11/20 10:06:30;;;;;;;2.97;0.80;;;;;;;25.49;43.84;94243.94;5023724;28;20556;-62
2022/11/20 10:09:05;;;;;;;2.92;0.88;;;;;;;25.38;44.57;94257.19;5011118;28;20064;-63
2022/11/20 10:11:46;;;;;;;3.70;1.10;;;;;;;25.19;44.74;94243.06;5044388;28;20128;-61
2022/11/20 10:14:33;;;;;;;4.68;1.40;;;;;;;25.22;44.82;94239.25;5027752;28;20045;-62
2022/11/20 10:17:03;;;;;;;2.65;1.30;;;;;;;25.10;44.78;94243.56;5033619;28;20461;-62
2022/11/20 10:19:37;;;;;;;;;;;;;;;25.14;45.30;94232.28;5033516;28;20493;-62
2022/11/20 10:22:31;;;;;;;5.68;1.40;;;;;;;25.26;44.92;94234.19;5023593;28;19970;-62
2022/11/20 10:25:19;;;;;;;4.18;1.35;;;;;;;25.07;44.84;94217.31;5044475;28;20048;-61
2022/11/20 10:28:03;;;;;;;3.25;1.30;;;;;;;25.00;45.67;94236.41;5024020;28;20415;-62
2022/11/20 10:30:30;;;;;;;4.97;1.50;;;;;;;24.90;46.15;94247.09;5041816;28;20041;-62
2022/11/20 10:33:15;;;;;;;4.32;1.50;;;;;;;24.82;45.68;94228.47;4993528;28;20068;-62
2022/11/20 10:35:47;;;;;;;5.20;1.60;;;;;;;24.79;45.85;94254.09;5028720;28;20052;-61
2022/11/20 10:38:20;;;;;;;5.57;1.77;;;;;;;24.95;45.47;94243.47;4989456;28;20545;-63
2022/11/20 10:40:49;;;;;;;7.95;2.10;;;;;;;24.34;45.60;94141.88;5017004;28;20144;-62
2022/11/20 10:43:32;;;;;;;4.75;2.00;;;;;;;24.92;45.52;94250.00;4994598;28;20125;-62
2022/11/20 10:46:00;;;;;;;4.35;1.98;;;;;;;24.83;45.71;94247.75;5024900;28;20509;-62
2022/11/20 10:48:27;;;;;;;7.95;2.88;;;;;;;24.85;45.60;94223.38;4992913;28;20025;-64
2022/11/20 10:51:01;;;;;;;6.15;2.80;;;;;;;25.00;45.79;94231.66;4998616;28;20540;-62
2022/11/20 10:53:48;;;;;;;7.30;2.88;;;;;;;25.07;45.81;94254.84;5020640;28;20049;-63
2022/11/20 10:56:30;;;;;;;6.72;2.78;;;;;;;24.82;45.90;94240.81;5014206;28;20053;-63
2022/11/20 10:59:38;;;;;;;7.22;2.25;;;;;;;24.79;45.96;94240.47;4998857;28;20048;-62
2022/11/20 11:02:21;;;;;;;8.73;2.35;;;;;;;24.83;45.40;94264.16;4979844;28;20041;-62
2022/11/20 11:04:49;;;;;;;5.22;1.90;;;;;;;24.80;45.67;94280.13;4993912;28;20033;-63
2022/11/20 11:07:23;;;;;;;7.03;1.85;;;;;;;23.92;46.94;94233.19;4990261;28;20049;-63
2022/11/20 11:09:53;;;;;;;7.53;1.50;;;;;;;24.27;46.62;94314.44;5004416;28;20030;-64
2022/11/20 11:12:20;;;;;;;8.45;1.88;;;;;;;24.76;46.31;94318.72;4981056;28;20117;-65
2022/11/20 11:14:47;;;;;;;6.55;1.90;;;;;;;25.08;45.54;94317.16;4989377;28;20049;-63
2022/11/20 11:17:30;;;;;;;5.10;1.60;;;;;;;25.14;45.06;94308.78;4992917;28;20069;-63
2022/11/20 11:20:05;;;;;;;5.05;1.83;;;;;;;25.31;44.71;94298.88;4993304;28;20064;-63
2022/11/20 11:22:32;;;;;;;4.38;1.60;;;;;;;25.00;45.41;94289.03;5037856;28;20049;-63
2022/11/20 11:24:58;;;;;;;4.88;1.65;;;;;;;25.19;45.12;94310.66;4992953;28;20041;-62
2022/11/20 11:27:23;;;;;;;7.85;1.80;;;;;;;25.09;44.94;94263.97;5040161;28;20064;-63
2022/11/20 11:29:49;;;;;;;4.22;1.80;;;;;;;25.31;44.81;94257.88;4993795;28;20037;-64
2022/11/20 11:32:18;;;;;;;4.72;1.80;;;;;;;24.82;44.57;94202.59;4971653;28;20058;-63
2022/11/20 11:34:44;;;;;;;3.35;1.73;;;;;;;24.79;44.43;94196.75;4996738;28;20068;-63
2022/11/20 11:37:15;;;;;;;4.57;1.48;;;;;;;24.99;45.02;94232.97;5008701;28;20049;-64
2022/11/20 11:39:41;;;;;;;3.83;1.50;;;;;;;24.61;44.75;94148.59;4985438;28;20068;-63
2022/11/20 11:42:11;;;;;;;3.70;1.30;;;;;;;25.08;45.18;94237.94;4994827;28;20056;-64
2022/11/20 11:47:22;;;;;;;7.63;2.28;;;;;;;24.69;44.45;94127.53;5001796;28;19936;-63
2022/11/20 11:49:47;;;;;;;3.58;1.40;;;;;;;25.42;44.39;94235.69;5003393;28;20045;-65